createdAt,value
2018-04-07T00:02:09.181Z,6.50
2018-04-07T00:04:36.942Z,7.00
2018-04-07T00:07:04.764Z,6.17
2018-04-07T00:09:32.506Z,6.87
2018-04-07T00:12:00.273Z,6.70
2018-04-07T00:14:28.133Z,6.83
2018-04-07T00:16:55.881Z,6.90
2018-04-07T00:19:24.404Z,6.53
2018-04-07T00:21:52.163Z,7.03
2018-04-07T00:24:19.909Z,6.37
2018-04-07T00:26:47.653Z,7.20
2018-04-07T00:29:16.174Z,7.30
2018-04-07T00:31:43.924Z,8.80
2018-04-07T00:34:11.705Z,8.53
2018-04-07T00:36:39.465Z,7.47
2018-04-07T00:39:07.221Z,6.97
2018-04-07T00:41:34.965Z,7.00
2018-04-07T00:44:02.735Z,7.90
2018-04-07T00:46:30.508Z,7.33
2018-04-07T00:48:58.264Z,6.57
2018-04-07T00:51:26.020Z,6.87
2018-04-07T00:53:54.550Z,7.03
2018-04-07T00:56:22.296Z,6.70
2018-04-07T00:58:50.061Z,6.43
2018-04-07T01:01:17.824Z,8.27
2018-04-07T01:03:45.589Z,6.37
2018-04-07T01:06:13.402Z,7.70
2018-04-07T01:08:41.920Z,7.23
2018-04-07T01:11:09.690Z,6.63
2018-04-07T01:13:37.452Z,5.70
2018-04-07T01:16:05.298Z,6.83
2018-04-07T01:18:33.065Z,6.30
2018-04-07T01:21:00.813Z,7.80
2018-04-07T01:23:29.322Z,7.50
2018-04-07T01:25:57.090Z,6.60
2018-04-07T01:28:24.847Z,9.20
2018-04-07T01:30:52.703Z,7.33
2018-04-07T01:33:20.484Z,7.33
2018-04-07T01:35:48.243Z,7.47
2018-04-07T01:38:16.010Z,7.57
2018-04-07T01:40:43.766Z,7.77
2018-04-07T01:43:11.533Z,6.57
2018-04-07T01:45:39.296Z,7.97
2018-04-07T01:48:07.061Z,8.30
2018-04-07T01:50:34.998Z,6.30
2018-04-07T01:53:03.525Z,7.33
2018-04-07T01:55:31.276Z,7.13
2018-04-07T01:57:59.045Z,8.17
2018-04-07T02:00:26.832Z,7.55
2018-04-07T02:02:54.600Z,7.57
2018-04-07T02:05:22.340Z,7.83
2018-04-07T02:07:50.109Z,7.50
2018-04-07T02:10:17.853Z,7.73
2018-04-07T02:12:45.656Z,8.00
2018-04-07T02:15:13.401Z,7.30
2018-04-07T02:17:41.145Z,6.63
2018-04-07T02:20:08.889Z,7.33
2018-04-07T02:22:37.400Z,8.90
2018-04-07T02:25:05.158Z,7.90
2018-04-07T02:27:32.900Z,8.87
2018-04-07T02:30:01.496Z,9.00
2018-04-07T02:32:29.264Z,7.83
2018-04-07T02:34:57.025Z,8.17
2018-04-07T02:37:24.787Z,8.57
2018-04-07T02:39:52.591Z,7.80
2018-04-07T02:42:20.350Z,8.07
2018-04-07T02:44:48.114Z,8.33
2018-04-07T02:47:15.854Z,8.77
2018-04-07T02:49:43.625Z,8.20
2018-04-07T02:52:11.460Z,8.23
2018-04-07T02:54:39.992Z,9.17
2018-04-07T02:57:07.745Z,6.97
2018-04-07T02:59:35.514Z,9.93
2018-04-07T03:02:03.272Z,8.43
2018-04-07T03:04:31.031Z,8.07
2018-04-07T03:06:58.811Z,7.10
2018-04-07T03:09:26.567Z,8.33
2018-04-07T03:11:54.315Z,7.83
2018-04-07T03:14:22.065Z,7.63
2018-04-07T03:16:49.822Z,8.23
2018-04-07T03:19:17.640Z,8.37
2018-04-07T03:21:46.152Z,8.00
2018-04-07T03:24:14.672Z,8.97
2018-04-07T03:26:42.449Z,7.80
2018-04-07T03:29:10.206Z,7.97
2018-04-07T03:31:37.958Z,8.53
2018-04-07T03:34:05.750Z,8.70
2018-04-07T03:36:33.517Z,7.97
2018-04-07T03:39:01.275Z,7.03
2018-04-07T03:41:29.049Z,7.67
2018-04-07T03:43:56.798Z,7.43
2018-04-07T03:46:24.598Z,8.30
2018-04-07T03:48:52.401Z,9.10
2018-04-07T03:51:20.228Z,6.80
2018-04-07T03:53:48.014Z,7.57
2018-04-07T03:56:16.528Z,8.03
2018-04-07T03:58:44.372Z,6.60
2018-04-07T04:01:12.137Z,7.20
2018-04-07T04:03:39.916Z,6.40
2018-04-07T04:06:07.723Z,7.00
2018-04-07T04:08:35.481Z,7.97
2018-04-07T04:11:03.237Z,7.13
2018-04-07T04:13:30.988Z,7.57
2018-04-07T04:15:58.746Z,6.90
2018-04-07T04:18:26.501Z,7.37
2018-04-07T04:20:54.253Z,7.93
2018-04-07T04:23:22.029Z,7.73
2018-04-07T04:25:49.816Z,7.10
2018-04-07T04:28:17.567Z,7.10
2018-04-07T04:30:45.323Z,6.97
2018-04-07T04:33:13.056Z,7.63
2018-04-07T04:35:41.602Z,7.20
2018-04-07T04:38:09.359Z,7.10
2018-04-07T04:40:37.110Z,6.70
2018-04-07T04:43:04.874Z,6.70
2018-04-07T04:45:32.622Z,8.20
2018-04-07T04:48:00.385Z,8.07
2018-04-07T04:50:28.129Z,7.53
2018-04-07T04:52:56.636Z,7.17
2018-04-07T04:55:24.419Z,8.53
2018-04-07T04:57:52.167Z,7.23
2018-04-07T05:00:19.928Z,8.20
2018-04-07T05:02:47.697Z,8.10
2018-04-07T05:05:15.456Z,7.63
2018-04-07T05:07:43.220Z,7.17
2018-04-07T05:10:10.984Z,7.80
2018-04-07T05:12:38.725Z,7.97
2018-04-07T05:15:06.488Z,7.60
2018-04-07T05:17:34.284Z,7.57
2018-04-07T05:20:02.048Z,6.87
2018-04-07T05:22:29.792Z,7.17
2018-04-07T05:24:57.538Z,7.93
2018-04-07T05:27:26.070Z,8.10
2018-04-07T05:29:53.834Z,6.97
2018-04-07T05:32:21.598Z,7.00
2018-04-07T05:34:49.340Z,7.97
2018-04-07T05:37:17.200Z,7.80
2018-04-07T05:39:44.950Z,8.30
2018-04-07T05:42:12.789Z,7.63
2018-04-07T05:44:41.330Z,7.80
2018-04-07T05:47:09.105Z,7.87
2018-04-07T05:49:36.873Z,7.67
2018-04-07T05:52:05.432Z,7.13
2018-04-07T05:54:33.220Z,7.10
2018-04-07T05:57:01.014Z,8.00
2018-04-07T05:59:29.585Z,7.80
2018-04-07T06:01:57.333Z,7.10
2018-04-07T06:04:25.095Z,7.90
2018-04-07T06:06:52.880Z,8.40
2018-04-07T06:09:20.628Z,7.90
2018-04-07T06:11:48.386Z,9.13
2018-04-07T06:14:16.170Z,7.77
2018-04-07T06:16:43.913Z,6.77
2018-04-07T06:19:11.673Z,7.80
2018-04-07T06:21:39.425Z,6.70
2018-04-07T06:24:07.196Z,6.80
2018-04-07T06:26:34.966Z,7.70
2018-04-07T06:29:02.725Z,8.20
2018-04-07T06:31:30.460Z,7.33
2018-04-07T06:33:58.232Z,8.30
2018-04-07T06:36:25.999Z,7.60
2018-04-07T06:38:53.784Z,9.00
2018-04-07T06:41:21.537Z,8.83
2018-04-07T06:43:49.284Z,7.10
2018-04-07T06:46:17.092Z,8.23
2018-04-07T06:48:44.845Z,8.57
2018-04-07T06:51:12.599Z,8.83
2018-04-07T06:53:40.358Z,8.70
2018-04-07T06:56:08.137Z,8.13
2018-04-07T06:58:35.890Z,8.67
2018-04-07T07:01:03.636Z,8.73
2018-04-07T07:03:31.384Z,7.53
2018-04-07T07:05:59.146Z,9.13
2018-04-07T07:08:26.917Z,8.30
2018-04-07T07:10:54.688Z,8.93
2018-04-07T07:13:22.444Z,8.90
2018-04-07T07:15:50.185Z,8.87
2018-04-07T07:18:18.811Z,8.60
2018-04-07T07:20:46.688Z,7.53
2018-04-07T07:23:14.468Z,6.73
2018-04-07T07:25:42.315Z,6.73
2018-04-07T07:28:10.873Z,8.40
2018-04-07T07:30:38.640Z,6.80
2018-04-07T07:33:06.390Z,8.77
2018-04-07T07:35:34.172Z,7.03
2018-04-07T07:38:01.920Z,9.40
2018-04-07T07:40:29.680Z,8.07
2018-04-07T07:42:57.473Z,8.00
2018-04-07T07:45:25.228Z,9.73
2018-04-07T07:47:53.015Z,9.30
2018-04-07T07:50:20.756Z,7.87
2018-04-07T07:52:48.570Z,8.20
2018-04-07T07:55:16.313Z,8.23
2018-04-07T07:57:44.074Z,7.63
2018-04-07T08:00:11.845Z,9.33
2018-04-07T08:02:39.603Z,8.80
2018-04-07T08:05:07.446Z,7.80
2018-04-07T08:07:35.208Z,7.50
2018-04-07T08:10:03.027Z,8.17
2018-04-07T08:12:33.137Z,7.53
2018-04-07T08:15:00.908Z,8.43
2018-04-07T08:17:29.458Z,9.13
2018-04-07T08:19:57.216Z,10.00
2018-04-07T08:22:25.671Z,8.80
2018-04-07T08:24:53.432Z,8.90
2018-04-07T08:27:21.217Z,11.67
2018-04-07T08:29:49.303Z,9.03
2018-04-07T08:32:17.142Z,9.67
2018-04-07T08:34:45.277Z,9.87
2018-04-07T08:37:14.864Z,10.60
2018-04-07T08:39:40.890Z,10.60
2018-04-07T08:42:08.649Z,9.73
2018-04-07T08:44:36.413Z,9.93
2018-04-07T08:47:04.197Z,9.20
2018-04-07T08:49:32.733Z,10.13
2018-04-07T08:52:00.579Z,9.20
2018-04-07T08:54:28.344Z,10.10
2018-04-07T08:56:56.224Z,8.60
2018-04-07T08:59:23.992Z,8.90
2018-04-07T09:01:51.746Z,8.00
2018-04-07T09:04:19.524Z,10.00
2018-04-07T09:06:47.680Z,8.20
2018-04-07T09:09:15.444Z,9.07
2018-04-07T09:11:43.266Z,9.23
2018-04-07T09:14:11.848Z,8.70
2018-04-07T09:16:40.385Z,9.50
2018-04-07T09:19:08.202Z,9.73
2018-04-07T09:21:37.222Z,9.73
2018-04-07T09:24:05.000Z,10.20
2018-04-07T09:26:32.785Z,10.03
2018-04-07T09:29:00.549Z,9.43
2018-04-07T09:31:28.339Z,11.60
2018-04-07T09:33:56.090Z,9.53
2018-04-07T09:36:23.841Z,9.53
2018-04-07T09:38:51.592Z,8.13
2018-04-07T09:41:19.381Z,10.67
2018-04-07T09:43:47.214Z,13.73
2018-04-07T09:46:15.025Z,11.43
2018-04-07T09:48:43.963Z,9.57
2018-04-07T09:51:11.947Z,10.33
2018-04-07T09:53:40.901Z,8.50
2018-04-07T09:56:09.216Z,9.07
2018-04-07T09:58:36.992Z,9.33
2018-04-07T10:01:04.788Z,7.67
2018-04-07T10:03:32.545Z,7.80
2018-04-07T10:06:00.313Z,6.73
2018-04-07T10:08:28.088Z,6.10
2018-04-07T10:10:56.669Z,6.37
2018-04-07T10:13:25.200Z,5.97
2018-04-07T10:15:53.020Z,5.70
2018-04-07T10:18:20.793Z,7.30
2018-04-07T10:20:49.341Z,5.70
2018-04-07T10:23:17.105Z,6.10
2018-04-07T10:25:44.932Z,6.53
2018-04-07T10:28:12.708Z,6.12
2018-04-07T10:30:40.488Z,6.00
2018-04-07T10:33:08.272Z,6.00
2018-04-07T10:35:36.053Z,5.97
2018-04-07T10:38:04.585Z,6.20
2018-04-07T10:40:32.348Z,5.07
2018-04-07T10:43:00.137Z,5.17
2018-04-07T10:45:27.888Z,4.83
2018-04-07T11:41:07.517Z,5.23
2018-04-07T11:43:35.323Z,4.30
2018-04-07T11:46:03.224Z,4.37
2018-04-07T11:48:31.788Z,4.10
2018-04-07T11:50:59.554Z,4.23
2018-04-07T11:53:27.301Z,4.03
2018-04-07T11:55:55.081Z,3.30
2018-04-07T11:58:22.824Z,3.77
2018-04-07T12:00:50.583Z,4.07
2018-04-07T12:03:18.376Z,3.83
2018-04-07T12:05:46.165Z,4.20
2018-04-07T12:08:14.722Z,4.20
2018-04-07T12:10:42.481Z,3.60
2018-04-07T12:13:10.256Z,4.67
2018-04-07T12:15:38.030Z,3.20
2018-04-07T12:18:06.559Z,3.90
2018-04-07T12:20:34.345Z,3.67
2018-04-07T12:23:02.102Z,4.10
2018-04-07T12:25:29.883Z,5.27
2018-04-07T12:27:57.647Z,5.97
2018-04-07T12:30:25.407Z,4.80
2018-04-07T12:32:53.174Z,4.90
2018-04-07T12:35:20.920Z,4.50
2018-04-07T12:37:48.670Z,4.93
2018-04-07T12:40:16.442Z,4.40
2018-04-07T12:42:44.207Z,4.27
2018-04-07T12:45:11.961Z,4.13
2018-04-07T12:47:39.699Z,3.70
2018-04-07T12:50:07.472Z,4.00
2018-04-07T12:52:35.221Z,4.17
2018-04-07T12:55:03.792Z,3.03
2018-04-07T13:57:48.251Z,2.97
2018-04-07T14:00:16.068Z,3.57
2018-04-07T14:02:44.592Z,3.60
2018-04-07T14:05:12.339Z,3.17
2018-04-07T14:07:40.084Z,3.73
2018-04-07T14:10:08.597Z,2.47
2018-04-07T14:12:36.365Z,2.60
2018-04-07T14:15:04.150Z,3.20
2018-04-07T14:17:31.908Z,2.83
2018-04-07T14:19:59.653Z,2.93
2018-04-07T14:22:27.406Z,3.17
2018-04-07T14:24:55.212Z,2.58
2018-04-07T14:27:22.963Z,2.60
2018-04-07T14:29:50.715Z,2.93
2018-04-07T14:32:18.462Z,2.13
2018-04-07T14:34:46.210Z,3.50
2018-04-07T14:37:14.726Z,2.70
2018-04-07T14:39:42.481Z,2.93
2018-04-07T14:42:10.237Z,2.83
2018-04-07T14:44:38.023Z,2.87
2018-04-07T14:47:05.790Z,3.27
2018-04-07T14:49:33.584Z,3.33
2018-04-07T14:52:01.345Z,2.53
2018-04-07T14:54:29.109Z,3.00
2018-04-07T14:56:57.721Z,3.50
2018-04-07T14:59:26.242Z,3.10
2018-04-07T15:01:53.994Z,2.97
2018-04-07T15:04:21.732Z,3.40
2018-04-07T15:06:49.486Z,2.80
2018-04-07T15:09:18.001Z,3.47
2018-04-07T15:11:45.745Z,3.30
2018-04-07T15:14:13.489Z,2.90
2018-04-07T15:16:42.028Z,4.10
2018-04-07T15:19:09.779Z,3.47
2018-04-07T15:21:37.558Z,3.70
2018-04-07T15:24:05.322Z,3.33
2018-04-07T15:26:33.083Z,3.27
2018-04-07T15:29:00.836Z,2.80
2018-04-07T15:31:28.596Z,3.60
2018-04-07T15:33:57.116Z,2.80
2018-04-07T15:36:24.885Z,3.20
2018-04-07T15:38:52.643Z,2.87
2018-04-07T15:41:20.414Z,7.83
2018-04-07T15:43:48.190Z,3.07
2018-04-07T15:46:16.713Z,2.77
2018-04-07T15:48:44.485Z,3.23
2018-04-07T15:51:12.226Z,2.53
2018-04-07T15:53:39.984Z,4.30
2018-04-07T15:56:07.788Z,3.20
2018-04-07T15:58:35.528Z,3.50
2018-04-07T16:01:03.357Z,2.93
2018-04-07T16:03:31.884Z,3.37
2018-04-07T16:05:59.699Z,3.13
2018-04-07T16:08:27.521Z,3.40
2018-04-07T16:10:55.328Z,2.10
2018-04-07T16:13:23.060Z,3.17
2018-04-07T16:15:50.819Z,3.40
2018-04-07T16:18:18.562Z,2.57
2018-04-07T16:20:46.308Z,3.80
2018-04-07T16:23:14.053Z,3.30
2018-04-07T16:25:42.574Z,3.00
2018-04-07T16:28:10.319Z,3.10
2018-04-07T16:30:38.147Z,3.40
2018-04-07T16:33:05.964Z,3.13
2018-04-07T16:35:33.733Z,3.00
2018-04-07T16:38:01.558Z,3.70
2018-04-07T16:40:30.080Z,3.30
2018-04-07T16:42:57.824Z,3.60
2018-04-07T16:45:25.656Z,4.57
2018-04-07T16:47:54.191Z,4.03
2018-04-07T16:50:21.976Z,3.53
2018-04-07T16:52:49.725Z,3.30
2018-04-07T16:55:17.490Z,3.47
2018-04-07T16:57:45.308Z,4.10
2018-04-07T17:00:13.848Z,4.50
2018-04-07T17:02:41.668Z,3.97
2018-04-07T17:05:10.188Z,3.77
2018-04-07T17:07:37.940Z,3.80
2018-04-07T17:10:05.777Z,4.37
2018-04-07T17:12:33.672Z,4.30
2018-04-07T17:15:01.473Z,4.67
2018-04-07T17:17:29.221Z,4.80
2018-04-07T17:19:57.932Z,4.93
2018-04-07T17:22:25.676Z,4.67
2018-04-07T17:24:53.416Z,4.60
2018-04-07T17:27:21.472Z,4.77
2018-04-07T17:29:49.394Z,5.00
2018-04-07T17:32:17.985Z,3.90
2018-04-07T17:34:45.753Z,4.27
2018-04-07T17:37:14.284Z,4.03
2018-04-07T17:39:42.038Z,3.33
2018-04-07T17:42:09.822Z,4.80
2018-04-07T17:44:37.697Z,5.77
2018-04-07T17:47:05.457Z,4.63
2018-04-07T17:49:43.606Z,3.60
2018-04-07T17:52:01.082Z,3.93
2018-04-07T17:54:28.839Z,4.30
2018-04-07T17:56:56.641Z,4.23
2018-04-07T17:59:24.381Z,4.27
2018-04-07T18:01:52.286Z,4.17
2018-04-07T18:04:20.874Z,4.30
2018-04-07T18:06:49.393Z,4.50
2018-04-07T18:09:17.198Z,5.27
2018-04-07T18:11:44.947Z,4.17
2018-04-07T18:14:12.702Z,4.70
2018-04-07T18:16:40.460Z,4.43
2018-04-07T18:19:08.266Z,4.80
2018-04-07T18:21:36.787Z,5.83
2018-04-07T18:24:04.540Z,4.00
2018-04-07T18:26:32.316Z,4.30
2018-04-07T18:29:00.173Z,4.43
2018-04-07T18:31:27.980Z,4.20
2018-04-07T18:33:55.736Z,4.53
2018-04-07T18:36:23.488Z,4.23
2018-04-07T18:38:51.290Z,3.40
2018-04-07T18:41:19.193Z,4.27
2018-04-07T18:43:46.972Z,4.80
2018-04-07T18:46:14.726Z,4.17
2018-04-07T18:48:42.485Z,3.57
2018-04-07T18:51:10.245Z,3.97
2018-04-07T18:53:38.133Z,3.83
2018-04-07T18:56:05.997Z,4.50
2018-04-07T18:58:33.951Z,4.27
2018-04-07T19:01:01.872Z,4.80
2018-04-07T19:03:29.826Z,4.60
2018-04-07T19:05:57.570Z,4.40
2018-04-07T19:08:25.412Z,4.83
2018-04-07T19:10:53.318Z,5.20
2018-04-07T19:13:21.076Z,5.23
2018-04-07T19:15:48.903Z,5.80
2018-04-07T19:18:17.416Z,5.70
2018-04-07T19:20:45.184Z,5.73
2018-04-07T19:23:13.045Z,4.30
2018-04-07T19:25:40.845Z,3.60
2018-04-07T19:28:09.404Z,4.23
2018-04-07T19:30:37.258Z,4.87
2018-04-07T19:33:05.023Z,3.70
2018-04-07T19:35:32.856Z,3.97
2018-04-07T19:38:01.432Z,3.53
2018-04-07T19:40:29.947Z,3.60
2018-04-07T19:42:57.766Z,4.47
2018-04-07T19:45:25.591Z,4.63
2018-04-07T19:47:53.351Z,4.33
2018-04-07T19:50:21.110Z,4.20
2018-04-07T19:52:48.932Z,4.20
2018-04-07T19:55:17.475Z,4.33
2018-04-07T19:57:45.220Z,6.80
2018-04-07T20:00:13.037Z,6.30
2018-04-07T20:02:40.792Z,5.90
2018-04-07T20:05:08.560Z,6.20
2018-04-07T20:07:36.377Z,5.57
2018-04-07T20:10:04.949Z,4.47
2018-04-07T20:12:32.783Z,5.10
2018-04-07T20:15:01.339Z,5.10
2018-04-07T20:17:29.118Z,4.70
2018-04-07T20:19:56.869Z,5.17
2018-04-07T20:22:24.736Z,3.50
2018-04-07T20:24:52.514Z,4.87
2018-04-07T20:27:20.277Z,4.63
2018-04-07T20:29:48.080Z,4.00
2018-04-07T20:32:15.859Z,4.53
2018-04-07T20:34:43.700Z,4.97
2018-04-07T20:37:11.540Z,4.73
2018-04-07T20:39:39.406Z,4.10
2018-04-07T20:42:19.195Z,5.10
2018-04-07T20:44:47.030Z,4.20
2018-04-07T20:47:15.578Z,3.70
2018-04-07T20:49:43.481Z,3.33
2018-04-07T20:52:12.378Z,3.70
2018-04-07T20:54:40.616Z,4.30
2018-04-07T20:57:08.439Z,3.30
2018-04-07T20:59:36.236Z,2.87
2018-04-07T21:02:04.084Z,4.73
2018-04-07T21:04:31.884Z,3.10
2018-04-07T21:06:59.829Z,3.27
2018-04-07T21:09:27.711Z,2.90
2018-04-07T21:11:55.673Z,3.00
2018-04-07T21:14:23.520Z,2.73
2018-04-07T21:16:51.359Z,2.90
2018-04-07T21:19:19.125Z,2.83
2018-04-07T21:21:48.383Z,2.70
2018-04-07T21:24:16.294Z,3.23
2018-04-07T21:26:44.086Z,3.20
2018-04-07T21:29:11.875Z,3.30
2018-04-07T21:31:39.687Z,3.67
2018-04-07T21:34:07.495Z,3.93
2018-04-07T21:36:35.358Z,2.63
2018-04-07T21:39:03.311Z,3.00
2018-04-07T21:41:32.579Z,2.77
2018-04-07T21:44:00.400Z,2.93
2018-04-07T21:46:28.276Z,3.27
2018-04-07T21:48:56.098Z,3.00
2018-04-07T21:51:23.829Z,3.07
2018-04-07T21:53:52.336Z,3.00
2018-04-07T21:56:20.085Z,2.60
2018-04-07T21:58:47.829Z,4.00
2018-04-07T22:01:15.692Z,3.53
2018-04-07T22:03:43.489Z,2.80
2018-04-07T22:06:11.249Z,3.20
2018-04-07T22:08:39.103Z,3.60
2018-04-07T22:11:07.684Z,2.40
2018-04-07T22:13:36.219Z,2.57
2018-04-07T22:16:03.983Z,2.37
2018-04-07T22:18:32.240Z,2.43
2018-04-07T22:21:00.000Z,3.10
2018-04-07T22:23:27.752Z,2.27
2018-04-07T22:25:55.552Z,3.73
2018-04-07T22:28:23.793Z,3.10
2018-04-07T22:30:51.602Z,2.40
2018-04-07T22:33:19.420Z,2.27
2018-04-07T22:35:47.265Z,2.23
2018-04-07T22:38:15.104Z,2.40
2018-04-07T22:40:42.866Z,2.10
2018-04-07T22:46:31.557Z,2.40
2018-04-07T22:49:01.289Z,2.20
2018-04-07T22:51:29.077Z,3.97
2018-04-07T23:16:40.250Z,3.90
2018-04-07T23:22:29.001Z,3.53
2018-04-07T23:24:56.771Z,4.33
2018-04-07T23:57:24.837Z,4.00
2018-04-07T23:59:52.596Z,3.90
